Time;durP1;ratioP1;P1;durP2;ratioP2;P2;SDS_P1;SDS_P2;PMS_P1;PMS_P2;Temp;Humidity;BMP_temperature;BMP_pressure;BME280_temperature;BME280_humidity;BME280_pressure;Samples;Min_cycle;Max_cycle;Signal;HPM_P1;HPM_P2
2021/07/09 00:01:15;;;;;;;12.65;7.63;;;691.20;2380.80;;;;;;5052798;28;20076;-67
2021/07/09 00:03:42;;;;;;;10.52;7.75;;;691.20;2380.80;;;;;;5052688;28;20486;-68
2021/07/09 00:06:07;;;;;;;8.88;7.70;;;691.20;2406.40;;;;;;5052401;28;20051;-69
2021/07/09 00:08:33;;;;;;;12.27;8.20;;;666.50;2406.40;;;;;;5052647;28;20021;-68
2021/07/09 00:11:00;;;;;;;9.73;7.70;;;666.50;2432.00;;;;;;5052435;28;20017;-67
2021/07/09 00:13:26;;;;;;;17.27;8.10;;;666.50;2432.00;;;;;;5052217;28;20049;-68
2021/07/09 00:15:52;;;;;;;10.40;8.13;;;666.40;2432.00;;;;;;5052319;28;20368;-67
2021/07/09 00:18:18;;;;;;;11.95;8.07;;;666.40;2432.00;;;;;;5052504;28;20031;-67
2021/07/09 00:20:43;;;;;;;10.65;8.32;;;666.30;2432.00;;;;;;5052174;28;20029;-69
2021/07/09 00:23:09;;;;;;;13.30;8.07;;;666.20;2432.00;;;;;;5052448;28;20167;-68
2021/07/09 00:25:36;;;;;;;10.88;8.02;;;666.20;2432.00;;;;;;5052307;28;20075;-68
2021/07/09 00:28:05;;;;;;;10.80;8.38;;;666.10;2432.00;;;;;;5052599;28;20029;-68
2021/07/09 00:30:31;;;;;;;10.32;8.02;;;665.90;2432.00;;;;;;5052360;28;20052;-68
2021/07/09 00:32:57;;;;;;;11.82;7.93;;;665.90;2432.00;;;;;;5052121;28;20025;-69
2021/07/09 00:35:23;;;;;;;10.50;8.10;;;665.90;2432.00;;;;;;5052267;28;20029;-69
2021/07/09 00:37:48;;;;;;;13.15;7.95;;;665.90;2432.00;;;;;;5052012;28;20099;-69
2021/07/09 00:40:15;;;;;;;11.80;7.20;;;665.80;2432.00;;;;;;5052191;28;20155;-68
2021/07/09 00:42:42;;;;;;;9.85;7.00;;;665.70;2432.00;;;;;;5052119;28;20055;-69
2021/07/09 00:45:09;;;;;;;8.98;7.40;;;665.70;2432.00;;;;;;5052302;28;20419;-68
2021/07/09 00:47:36;;;;;;;11.02;7.10;;;665.70;2432.00;;;;;;5052168;28;20049;-67
2021/07/09 00:50:02;;;;;;;9.57;6.88;;;665.70;2432.00;;;;;;5052001;28;20025;-69
2021/07/09 00:52:28;;;;;;;10.60;6.97;;;665.70;2432.00;;;;;;5052064;28;20017;-68
2021/07/09 00:54:54;;;;;;;10.25;7.05;;;665.70;2432.00;;;;;;5054885;28;20091;-68
2021/07/09 00:57:20;;;;;;;10.00;7.13;;;665.70;2432.00;;;;;;5055993;28;20025;-68
2021/07/09 00:59:45;;;;;;;9.05;6.80;;;665.70;2432.00;;;;;;5056178;28;20024;-68
2021/07/09 01:02:11;;;;;;;11.07;7.70;;;665.70;2432.00;;;;;;5055867;28;20062;-69
2021/07/09 01:04:37;;;;;;;10.32;7.18;;;665.70;2432.00;;;;;;5055803;28;20025;-69
2021/07/09 01:07:03;;;;;;;12.15;6.97;;;665.70;2432.00;;;;;;5055592;28;20031;-69
2021/07/09 01:09:29;;;;;;;8.95;7.07;;;665.70;2432.00;;;;;;5055883;28;20036;-69
2021/07/09 01:11:55;;;;;;;8.48;6.80;;;665.70;2432.00;;;;;;5055746;28;20029;-69
2021/07/09 01:14:22;;;;;;;8.55;6.30;;;665.70;2432.00;;;;;;5055494;28;20041;-68
2021/07/09 01:16:49;;;;;;;11.70;7.15;;;665.70;2432.00;;;;;;5053957;28;20028;-67
2021/07/09 01:19:17;;;;;;;8.57;6.20;;;665.70;2432.00;;;;;;5064571;28;20016;-78
2021/07/09 01:21:44;;;;;;;9.82;6.72;;;665.70;2432.00;;;;;;5074620;28;20391;-78
2021/07/09 01:24:11;;;;;;;9.02;6.18;;;665.70;2432.00;;;;;;5076472;28;20081;-78
2021/07/09 01:26:41;;;;;;;9.85;6.15;;;665.70;2432.00;;;;;;5075829;28;20021;-73
2021/07/09 01:29:07;;;;;;;9.97;6.20;;;665.60;2432.00;;;;;;5076101;28;20037;-73
2021/07/09 01:31:35;;;;;;;10.05;5.57;;;665.60;2432.00;;;;;;5075602;28;20479;-69
2021/07/09 01:34:01;;;;;;;9.30;5.72;;;665.60;2432.00;;;;;;5075407;28;20534;-68
2021/07/09 01:36:27;;;;;;;9.30;5.82;;;665.60;2432.00;;;;;;5075123;28;20497;-68
2021/07/09 01:38:53;;;;;;;8.55;5.90;;;665.60;2432.00;;;;;;5075270;28;20033;-68
2021/07/09 01:41:20;;;;;;;9.48;5.63;;;665.60;2432.00;;;;;;5075188;28;20496;-68
2021/07/09 01:43:47;;;;;;;7.55;5.38;;;665.60;2432.00;;;;;;5075504;28;20025;-68
2021/07/09 01:46:13;;;;;;;8.73;5.68;;;665.60;2432.00;;;;;;5075055;28;20059;-68
2021/07/09 01:48:39;;;;;;;8.00;5.43;;;665.60;2432.00;;;;;;5075021;28;20099;-68
2021/07/09 01:51:05;;;;;;;10.18;5.65;;;665.60;2432.00;;;;;;5075386;28;20108;-69
2021/07/09 01:53:31;;;;;;;8.70;5.60;;;640.90;2432.00;;;;;;5074722;28;20028;-72
2021/07/09 01:55:57;;;;;;;8.93;5.90;;;640.90;2432.00;;;;;;5075721;28;20047;-71
2021/07/09 01:58:22;;;;;;;7.93;6.00;;;640.90;2432.00;;;;;;5075213;28;20028;-78
2021/07/09 02:00:49;;;;;;;9.10;6.05;;;640.70;2432.00;;;;;;5075919;28;20029;-79
2021/07/09 02:03:15;;;;;;;10.60;6.55;;;640.70;2432.00;;;;;;5075380;28;20103;-70
2021/07/09 02:05:40;;;;;;;7.00;5.88;;;640.60;2432.00;;;;;;5073660;28;20431;-69
2021/07/09 02:08:06;;;;;;;8.35;5.63;;;640.60;2432.00;;;;;;5074889;28;20036;-72
2021/07/09 02:10:35;;;;;;;8.52;6.18;;;640.60;2432.00;;;;;;5075147;28;20021;-73
2021/07/09 02:13:02;;;;;;;9.80;5.93;;;640.50;2432.00;;;;;;5075119;28;20024;-73
2021/07/09 02:15:37;;;;;;;8.02;5.90;;;640.40;2432.00;;;;;;5074496;28;20028;-68
2021/07/09 02:18:05;;;;;;;9.30;6.15;;;640.20;2432.00;;;;;;5074537;28;20028;-68
2021/07/09 02:20:32;;;;;;;9.07;6.00;;;640.10;2432.00;;;;;;5074372;28;20028;-72
2021/07/09 02:22:59;;;;;;;7.47;5.50;;;640.10;2432.00;;;;;;5074857;28;20032;-72
2021/07/09 02:25:25;;;;;;;8.32;6.10;;;640.10;2432.00;;;;;;5074755;28;20475;-72
2021/07/09 02:27:53;;;;;;;8.15;6.00;;;640.10;2432.00;;;;;;5075047;28;20020;-77
2021/07/09 02:30:20;;;;;;;9.77;5.97;;;640.00;2432.00;;;;;;5074560;28;20024;-77
2021/07/09 02:32:47;;;;;;;8.75;6.10;;;640.00;2432.00;;;;;;5074554;28;20021;-78
2021/07/09 02:35:15;;;;;;;8.07;5.47;;;640.00;2432.00;;;;;;5074519;28;20036;-77
2021/07/09 02:37:42;;;;;;;7.15;5.30;;;640.10;2432.00;;;;;;5072843;28;20040;-77
2021/07/09 02:40:13;;;;;;;7.90;5.72;;;640.10;2432.00;;;;;;5074367;28;20028;-71
2021/07/09 02:42:41;;;;;;;8.85;5.40;;;640.10;2432.00;;;;;;5074520;28;20382;-76
2021/07/09 02:45:08;;;;;;;8.68;5.70;;;640.10;2432.00;;;;;;5074061;28;20037;-71
2021/07/09 02:47:35;;;;;;;8.68;5.75;;;640.10;2432.00;;;;;;5074377;28;20039;-69
2021/07/09 02:50:04;;;;;;;7.70;5.68;;;640.10;2432.00;;;;;;5074272;28;20046;-73
2021/07/09 02:52:29;;;;;;;10.10;5.85;;;640.00;2432.00;;;;;;5073015;28;20055;-72
2021/07/09 02:54:55;;;;;;;8.77;5.75;;;640.00;2432.00;;;;;;5074401;28;20048;-74
2021/07/09 02:57:21;;;;;;;8.27;5.90;;;615.30;2432.00;;;;;;5074311;28;20085;-78
2021/07/09 02:59:46;;;;;;;7.85;5.90;;;615.30;2432.00;;;;;;5074668;28;20039;-79
2021/07/09 03:02:12;;;;;;;7.63;5.80;;;615.30;2432.00;;;;;;5074045;28;20021;-79
2021/07/09 03:04:38;;;;;;;9.68;5.93;;;615.30;2432.00;;;;;;5074571;28;20020;-80
2021/07/09 03:07:03;;;;;;;9.43;6.05;;;615.30;2432.00;;;;;;5074070;28;20505;-78
2021/07/09 03:09:29;;;;;;;9.68;5.80;;;615.10;2432.00;;;;;;5074071;28;20043;-78
2021/07/09 03:11:55;;;;;;;7.07;6.00;;;615.20;2432.00;;;;;;5072643;28;20029;-78
2021/07/09 03:14:20;;;;;;;8.23;5.60;;;615.20;2432.00;;;;;;5073756;28;20041;-78
2021/07/09 03:16:46;;;;;;;9.57;5.68;;;615.20;2432.00;;;;;;5073237;28;20429;-79
2021/07/09 03:19:12;;;;;;;8.60;5.72;;;615.30;2432.00;;;;;;5073579;28;20056;-77
2021/07/09 03:21:38;;;;;;;8.82;5.72;;;615.30;2432.00;;;;;;5073808;28;20021;-77
2021/07/09 03:24:05;;;;;;;8.18;5.40;;;615.30;2432.00;;;;;;5073387;28;20024;-79
2021/07/09 03:26:31;;;;;;;11.13;5.82;;;615.30;2432.00;;;;;;5073624;28;20021;-79
2021/07/09 03:28:57;;;;;;;7.45;5.57;;;615.30;2432.00;;;;;;5073544;28;20042;-79
2021/07/09 03:31:28;;;;;;;10.07;6.10;;;615.30;2432.00;;;;;;5073665;28;20013;-69
2021/07/09 03:33:54;;;;;;;8.95;5.53;;;615.30;2432.00;;;;;;5073321;28;20020;-77
2021/07/09 03:36:20;;;;;;;8.25;5.95;;;615.20;2432.00;;;;;;5073735;28;20032;-78
2021/07/09 03:38:47;;;;;;;10.98;5.90;;;615.20;2432.00;;;;;;5073857;28;20052;-77
2021/07/09 03:41:13;;;;;;;8.10;5.32;;;615.30;2432.00;;;;;;5073289;28;20047;-69
2021/07/09 03:43:39;;;;;;;7.47;5.40;;;615.30;2432.00;;;;;;5072960;28;20020;-70
2021/07/09 03:46:05;;;;;;;8.52;5.57;;;615.30;2432.00;;;;;;5072775;28;20033;-74
2021/07/09 03:48:30;;;;;;;13.82;5.70;;;615.30;2432.00;;;;;;5073335;28;20016;-74
2021/07/09 03:50:56;;;;;;;7.80;5.50;;;615.30;2432.00;;;;;;5076919;28;20027;-78
2021/07/09 03:53:22;;;;;;;7.22;5.40;;;640.00;2432.00;;;;;;5080095;28;20048;-78
2021/07/09 03:55:48;;;;;;;9.98;5.28;;;615.30;2432.00;;;;;;5073299;28;20363;-69
2021/07/09 03:58:13;;;;;;;6.63;5.30;;;640.00;2432.00;;;;;;5073104;28;20493;-78
2021/07/09 04:00:39;;;;;;;7.90;5.07;;;640.00;2432.00;;;;;;5073458;28;20024;-78
2021/07/09 04:03:05;;;;;;;7.47;5.18;;;640.00;2432.00;;;;;;5073043;28;20084;-80
2021/07/09 04:05:30;;;;;;;8.80;5.20;;;640.10;2432.00;;;;;;5073091;28;20025;-80
2021/07/09 04:07:56;;;;;;;9.23;5.60;;;640.20;2432.00;;;;;;5073217;28;20498;-80
2021/07/09 04:10:22;;;;;;;7.43;5.00;;;640.20;2432.00;;;;;;5072713;28;20437;-80
2021/07/09 04:12:48;;;;;;;7.00;5.20;;;640.20;2432.00;;;;;;5073039;28;20025;-80
2021/07/09 04:15:13;;;;;;;8.65;5.32;;;640.20;2432.00;;;;;;5072541;28;20045;-79
2021/07/09 04:17:40;;;;;;;8.07;5.63;;;640.40;2432.00;;;;;;5072851;28;20385;-77
2021/07/09 04:20:06;;;;;;;8.75;5.40;;;640.40;2432.00;;;;;;5072658;28;20029;-78
2021/07/09 04:22:33;;;;;;;7.05;5.38;;;640.60;2432.00;;;;;;5072780;28;20078;-77
2021/07/09 04:24:59;;;;;;;7.18;4.97;;;640.60;2432.00;;;;;;5072590;28;20037;-80
2021/07/09 04:27:24;;;;;;;6.05;4.93;;;640.70;2432.00;;;;;;5072682;28;20035;-79
2021/07/09 04:29:50;;;;;;;8.30;4.93;;;640.70;2432.00;;;;;;5072507;28;20031;-80
2021/07/09 04:32:16;;;;;;;8.93;4.82;;;640.80;2432.00;;;;;;5072519;28;20412;-78
2021/07/09 04:34:41;;;;;;;6.28;4.80;;;640.90;2432.00;;;;;;5072451;28;20017;-70
2021/07/09 04:37:10;;;;;;;6.13;4.70;;;665.60;2432.00;;;;;;5072249;28;20471;-69
2021/07/09 04:39:37;;;;;;;8.48;5.10;;;665.70;2432.00;;;;;;5072450;28;20029;-70
2021/07/09 04:42:04;;;;;;;7.05;4.60;;;665.80;2432.00;;;;;;5072528;28;20029;-69
2021/07/09 04:44:30;;;;;;;8.35;5.05;;;665.90;2432.00;;;;;;5072353;28;20025;-68
2021/07/09 04:46:56;;;;;;;6.97;4.70;;;666.00;2432.00;;;;;;5072239;28;20033;-68
2021/07/09 04:49:22;;;;;;;6.70;4.78;;;666.20;2432.00;;;;;;5071987;28;20031;-71
2021/07/09 04:51:47;;;;;;;6.63;4.63;;;666.20;2432.00;;;;;;5072194;28;20028;-68
2021/07/09 04:54:13;;;;;;;6.18;4.63;;;666.50;2432.00;;;;;;5072234;28;20031;-69
2021/07/09 04:56:39;;;;;;;10.65;4.93;;;742.40;2432.00;;;;;;5072133;28;20021;-70
2021/07/09 04:59:07;;;;;;;7.32;5.00;;;845.00;2432.00;;;;;;5072174;28;20471;-69
2021/07/09 05:01:33;;;;;;;9.85;5.60;;;896.70;2176.00;;;;;;5071942;28;20099;-70
2021/07/09 05:03:59;;;;;;;9.20;5.50;;;947.70;1971.20;;;;;;5072201;28;20111;-69
2021/07/09 05:06:26;;;;;;;9.68;5.03;;;973.30;1894.40;;;;;;5071891;28;20537;-70
2021/07/09 05:08:52;;;;;;;8.40;5.35;;;998.90;1792.00;;;;;;5070825;28;20032;-70
2021/07/09 05:11:18;;;;;;;5.88;4.82;;;1024.90;1664.00;;;;;;5071892;28;20021;-69
2021/07/09 05:13:43;;;;;;;8.00;5.43;;;1050.00;1612.80;;;;;;5071711;28;20043;-69
2021/07/09 05:16:09;;;;;;;8.13;5.65;;;1050.20;1587.20;;;;;;5071912;28;20406;-69
2021/07/09 05:18:35;;;;;;;7.68;4.63;;;1075.70;1536.00;;;;;;5071805;28;20093;-69
2021/07/09 05:21:01;;;;;;;7.85;4.10;;;1101.20;1484.80;;;;;;5071862;28;20032;-69
2021/07/09 05:23:27;;;;;;;5.90;4.32;;;1075.60;1459.20;;;;;;5071839;28;20024;-69
2021/07/09 05:25:54;;;;;;;6.22;4.10;;;1076.10;1459.20;;;;;;5071969;28;20410;-68
2021/07/09 05:28:20;;;;;;;6.97;4.40;;;1101.10;1433.60;;;;;;5072052;28;20127;-71
2021/07/09 05:30:46;;;;;;;7.78;4.28;;;1101.60;1408.00;;;;;;5071723;28;20017;-69
2021/07/09 05:33:15;;;;;;;6.45;4.35;;;1101.60;1408.00;;;;;;5071729;28;20024;-70
2021/07/09 05:35:43;;;;;;;8.80;4.07;;;1101.50;1408.00;;;;;;5071686;28;20037;-70
2021/07/09 05:38:10;;;;;;;9.07;4.15;;;1101.10;1408.00;;;;;;5071624;28;20048;-70
2021/07/09 05:40:35;;;;;;;7.30;4.43;;;1050.50;1433.60;;;;;;5072227;28;20506;-69
2021/07/09 05:43:02;;;;;;;6.63;4.20;;;998.90;1536.00;;;;;;5075066;28;20017;-69
2021/07/09 05:45:29;;;;;;;7.88;3.95;;;947.50;1587.20;;;;;;5075164;28;20118;-69
2021/07/09 05:47:54;;;;;;;7.13;4.22;;;896.30;1664.00;;;;;;5075069;28;20052;-69
2021/07/09 05:50:21;;;;;;;7.20;4.40;;;870.80;1740.80;;;;;;5075120;28;20106;-69
2021/07/09 05:52:48;;;;;;;7.38;4.13;;;845.00;1817.60;;;;;;5074982;28;20033;-69
2021/07/09 05:55:14;;;;;;;6.18;4.18;;;819.60;1843.20;;;;;;5075040;28;20029;-69
2021/07/09 05:57:41;;;;;;;8.48;4.22;;;794.50;1894.40;;;;;;5074887;28;20028;-68
2021/07/09 06:00:08;;;;;;;7.45;4.45;;;793.90;1920.00;;;;;;5074817;28;20021;-69
2021/07/09 06:02:34;;;;;;;6.82;3.92;;;793.70;1945.60;;;;;;5075202;28;20031;-70
2021/07/09 06:04:59;;;;;;;6.72;4.00;;;768.90;1945.60;;;;;;5074964;28;20474;-68
2021/07/09 06:07:25;;;;;;;5.65;4.35;;;768.70;1971.20;;;;;;5074856;28;20475;-70
2021/07/09 06:09:51;;;;;;;5.55;4.18;;;768.60;1971.20;;;;;;5074651;28;20024;-69
2021/07/09 06:12:17;;;;;;;5.13;4.05;;;768.50;1996.80;;;;;;5074557;28;20033;-69
2021/07/09 06:14:43;;;;;;;5.25;4.07;;;768.50;1996.80;;;;;;5074592;28;20047;-69
2021/07/09 06:17:09;;;;;;;6.60;3.88;;;768.40;1996.80;;;;;;5074533;28;20024;-68
2021/07/09 06:19:34;;;;;;;5.38;3.80;;;768.60;1996.80;;;;;;5074498;28;20025;-68
2021/07/09 06:22:00;;;;;;;6.97;3.92;;;768.60;1996.80;;;;;;5074676;28;20060;-69
2021/07/09 06:24:26;;;;;;;7.15;3.80;;;768.60;1971.20;;;;;;5074523;28;20216;-68
2021/07/09 06:26:52;;;;;;;6.93;4.00;;;768.60;1996.80;;;;;;5074639;28;20028;-69
2021/07/09 06:29:17;;;;;;;8.07;4.20;;;768.80;1996.80;;;;;;5074193;28;20598;-68
2021/07/09 06:31:43;;;;;;;6.72;4.30;;;768.80;1971.20;;;;;;5074401;28;20033;-69
2021/07/09 06:34:09;;;;;;;7.30;4.10;;;793.60;1996.80;;;;;;5074127;28;20028;-69
2021/07/09 06:36:34;;;;;;;6.05;4.05;;;793.60;1971.20;;;;;;5074265;28;20021;-69
2021/07/09 06:39:00;;;;;;;5.35;3.95;;;793.70;1996.80;;;;;;5074144;28;20459;-69
2021/07/09 06:41:26;;;;;;;6.95;4.00;;;793.90;1971.20;;;;;;5074110;28;20032;-69
2021/07/09 06:43:52;;;;;;;5.15;3.70;;;793.90;1971.20;;;;;;5074061;28;20078;-69
2021/07/09 06:46:19;;;;;;;5.40;4.10;;;794.10;1971.20;;;;;;5074211;28;20032;-68
2021/07/09 06:48:44;;;;;;;5.20;4.10;;;794.20;1971.20;;;;;;5074063;28;20028;-70
2021/07/09 06:51:11;;;;;;;6.40;3.88;;;794.40;1945.60;;;;;;5073466;28;20024;-68
2021/07/09 06:53:37;;;;;;;6.80;4.00;;;794.50;1945.60;;;;;;5073926;28;20036;-71
2021/07/09 06:56:04;;;;;;;7.78;4.13;;;794.50;1971.20;;;;;;5073867;28;20020;-69
2021/07/09 06:58:30;;;;;;;5.13;3.70;;;819.30;1945.60;;;;;;5073682;28;20482;-69
2021/07/09 07:00:56;;;;;;;7.90;4.05;;;819.20;1920.00;;;;;;5073716;28;20035;-69
2021/07/09 07:03:21;;;;;;;7.30;3.97;;;819.30;1945.60;;;;;;5073514;28;20020;-69
2021/07/09 07:05:47;;;;;;;6.55;3.70;;;819.30;1920.00;;;;;;5073932;28;20063;-72
2021/07/09 07:08:29;;;;;;;6.25;3.83;;;819.30;1920.00;;;;;;5073414;28;20494;-72
2021/07/09 07:10:56;;;;;;;8.40;4.10;;;819.40;1920.00;;;;;;5074002;28;20024;-72
2021/07/09 07:13:23;;;;;;;5.95;3.90;;;819.40;1920.00;;;;;;5073336;28;20037;-73
2021/07/09 07:15:49;;;;;;;5.70;3.90;;;819.40;1894.40;;;;;;5073542;28;20033;-68
2021/07/09 07:18:15;;;;;;;4.88;3.70;;;819.60;1894.40;;;;;;5073455;28;20039;-70
2021/07/09 07:20:43;;;;;;;5.80;3.85;;;819.70;1894.40;;;;;;5073366;28;20028;-69
2021/07/09 07:23:10;;;;;;;5.72;4.00;;;819.80;1894.40;;;;;;5073653;28;20090;-69
2021/07/09 07:25:37;;;;;;;6.95;3.60;;;845.30;1894.40;;;;;;5073017;28;20502;-69
2021/07/09 07:28:04;;;;;;;5.97;3.50;;;896.90;1740.80;;;;;;5073249;28;20032;-69
2021/07/09 07:30:30;;;;;;;6.68;3.40;;;1024.20;1536.00;;;;;;5073502;28;20489;-68
2021/07/09 07:32:56;;;;;;;7.43;3.80;;;1101.60;1408.00;;;;;;5071821;28;20024;-71
2021/07/09 07:35:22;;;;;;;6.95;4.00;;;1152.60;1356.80;;;;;;5073246;28;20028;-68
2021/07/09 07:37:49;;;;;;;8.82;4.20;;;1178.50;1280.00;;;;;;5073211;28;20038;-68
2021/07/09 07:40:15;;;;;;;6.72;3.90;;;1203.80;1254.40;;;;;;5073084;28;20028;-68
2021/07/09 07:42:41;;;;;;;20.27;4.75;;;1229.70;1228.80;;;;;;5073160;28;20383;-69
2021/07/09 07:45:07;;;;;;;6.55;3.60;;;1203.40;1203.20;;;;;;5072807;28;20103;-67
2021/07/09 07:47:33;;;;;;;7.60;3.92;;;1126.90;1280.00;;;;;;5072924;28;20091;-67
2021/07/09 07:49:59;;;;;;;4.00;3.35;;;1049.90;1356.80;;;;;;5072779;28;20013;-67
2021/07/09 07:52:24;;;;;;;4.60;3.17;;;998.40;1459.20;;;;;;5072870;28;20027;-67
2021/07/09 07:54:50;;;;;;;5.38;3.30;;;948.10;1433.60;;;;;;5072979;28;20100;-67
2021/07/09 07:57:16;;;;;;;6.15;3.80;;;947.60;1510.40;;;;;;5072871;28;20032;-67
2021/07/09 07:59:42;;;;;;;5.07;3.40;;;948.10;1484.80;;;;;;5072879;28;20028;-67
2021/07/09 08:02:08;;;;;;;7.10;3.42;;;1024.10;1433.60;;;;;;5073017;28;20031;-69
2021/07/09 08:04:34;;;;;;;6.40;3.58;;;1101.70;1331.20;;;;;;5071897;28;20031;-67
2021/07/09 08:07:00;;;;;;;5.35;3.35;;;1178.30;1228.80;;;;;;5072430;28;20621;-67
2021/07/09 08:09:26;;;;;;;6.03;3.60;;;1229.30;1203.20;;;;;;5072935;28;20028;-67
2021/07/09 08:11:52;;;;;;;7.00;3.20;;;1254.50;1177.60;;;;;;5072517;28;20491;-67
2021/07/09 08:14:19;;;;;;;5.35;3.20;;;1255.00;1152.00;;;;;;5072320;28;20052;-69
2021/07/09 08:16:50;;;;;;;4.65;3.20;;;1280.90;1100.80;;;;;;5072449;28;20055;-69
2021/07/09 08:19:16;;;;;;;5.07;3.72;;;1280.50;1100.80;;;;;;5072539;28;20039;-69
2021/07/09 08:21:42;;;;;;;6.10;3.38;;;1306.20;1100.80;;;;;;5072324;28;20028;-69
2021/07/09 08:24:08;;;;;;;5.55;3.22;;;1305.70;1075.20;;;;;;5072592;28;20031;-69
2021/07/09 08:26:33;;;;;;;10.32;3.85;;;1306.30;1100.80;;;;;;5072282;28;20017;-69
2021/07/09 08:28:59;;;;;;;4.35;3.30;;;1306.50;1100.80;;;;;;5072334;28;20091;-69
2021/07/09 08:31:25;;;;;;;6.50;3.20;;;1305.90;1100.80;;;;;;5072330;28;20029;-69
2021/07/09 08:33:51;;;;;;;5.32;3.30;;;1305.90;1100.80;;;;;;5072330;28;20027;-68
2021/07/09 08:36:17;;;;;;;4.63;2.97;;;1306.30;1100.80;;;;;;5072548;28;20024;-69
2021/07/09 08:38:43;;;;;;;5.53;3.03;;;1331.60;1100.80;;;;;;5070986;28;20027;-69
2021/07/09 08:41:12;;;;;;;5.47;2.90;;;1331.20;1100.80;;;;;;5072161;28;20025;-68
2021/07/09 08:43:38;;;;;;;6.93;3.30;;;1305.90;1100.80;;;;;;5072238;28;20470;-69
2021/07/09 08:46:04;;;;;;;4.47;3.30;;;1331.40;1075.20;;;;;;5072013;28;20116;-68
2021/07/09 08:48:30;;;;;;;4.60;3.28;;;1305.90;1100.80;;;;;;5072248;28;20048;-69
2021/07/09 08:50:59;;;;;;;5.55;3.30;;;1280.50;1075.20;;;;;;5072558;28;20052;-68
2021/07/09 08:53:25;;;;;;;;;;;1280.40;1075.20;;;;;;5072452;28;20070;-68
2021/07/09 08:55:51;;;;;;;4.45;3.35;;;1229.50;1100.80;;;;;;5072277;28;19904;-68
2021/07/09 08:58:16;;;;;;;5.68;3.58;;;1204.10;1100.80;;;;;;5072077;28;20040;-70
2021/07/09 09:00:44;;;;;;;6.95;3.40;;;1127.10;1177.60;;;;;;5072429;28;20052;-69
2021/07/09 09:03:15;;;;;;;6.35;3.67;;;1100.80;1254.40;;;;;;5072230;28;20028;-70
2021/07/09 09:05:43;;;;;;;5.82;3.45;;;1049.60;1305.60;;;;;;5070826;28;20440;-69
2021/07/09 09:08:10;;;;;;;5.43;3.50;;;999.10;1331.20;;;;;;5071867;28;20081;-71
2021/07/09 09:10:43;;;;;;;4.50;3.63;;;998.70;1356.80;;;;;;5072095;28;20467;-68
2021/07/09 09:13:08;;;;;;;6.15;3.72;;;973.50;1356.80;;;;;;5071846;28;20033;-68
2021/07/09 09:15:35;;;;;;;5.10;3.25;;;948.10;1382.40;;;;;;5074218;28;20043;-68
2021/07/09 09:18:17;;;;;;;5.00;3.40;;;947.60;1408.00;;;;;;5075865;28;20028;-67
2021/07/09 09:20:43;;;;;;;5.07;3.50;;;922.50;1433.60;;;;;;5075719;28;20104;-67
2021/07/09 09:23:11;;;;;;;4.75;3.83;;;922.00;1459.20;;;;;;5076058;28;20114;-67
2021/07/09 09:25:38;;;;;;;4.65;3.72;;;896.90;1459.20;;;;;;5065328;28;20025;-67
2021/07/09 09:28:10;;;;;;;4.32;3.50;;;896.60;1459.20;;;;;;5075777;28;20024;-67
2021/07/09 09:30:38;;;;;;;5.70;3.40;;;896.60;1459.20;;;;;;5075574;28;20024;-69
2021/07/09 09:33:06;;;;;;;4.47;3.45;;;896.40;1459.20;;;;;;5075290;28;20023;-68
2021/07/09 09:35:37;;;;;;;6.35;3.45;;;896.10;1484.80;;;;;;5075697;28;20028;-68
2021/07/09 09:38:09;;;;;;;6.65;3.70;;;896.20;1484.80;;;;;;5075573;28;20025;-68
2021/07/09 09:40:38;;;;;;;6.63;3.60;;;896.10;1484.80;;;;;;5075860;28;20364;-71
2021/07/09 09:43:10;;;;;;;5.10;3.42;;;896.00;1484.80;;;;;;5075559;28;20390;-73
2021/07/09 09:45:37;;;;;;;5.43;3.80;;;896.10;1484.80;;;;;;5075499;28;20497;-69
2021/07/09 09:48:14;;;;;;;5.28;3.75;;;871.30;1510.40;;;;;;5070935;28;20031;-68
2021/07/09 09:50:48;;;;;;;7.47;3.63;;;871.30;1510.40;;;;;;5052173;28;20022;-68
2021/07/09 09:53:15;;;;;;;6.43;3.55;;;871.20;1510.40;;;;;;5055885;28;20043;-67
2021/07/09 09:55:41;;;;;;;5.13;3.40;;;896.00;1510.40;;;;;;5056602;28;20032;-67
2021/07/09 09:58:11;;;;;;;3.90;3.30;;;896.00;1510.40;;;;;;5057833;28;20399;-70
2021/07/09 10:00:38;;;;;;;5.35;3.78;;;896.20;1510.40;;;;;;5056386;28;20498;-69
2021/07/09 10:03:05;;;;;;;6.18;3.47;;;896.30;1510.40;;;;;;5057526;28;20040;-70
2021/07/09 10:05:59;;;;;;;4.72;3.58;;;896.50;1484.80;;;;;;5056666;28;20029;-69
2021/07/09 10:08:25;;;;;;;4.93;3.65;;;896.80;1484.80;;;;;;5058046;28;20043;-70
2021/07/09 10:10:51;;;;;;;4.85;3.65;;;896.80;1459.20;;;;;;5056321;28;20099;-69
2021/07/09 10:13:23;;;;;;;6.50;3.63;;;896.90;1459.20;;;;;;5056739;28;20125;-69
2021/07/09 10:15:51;;;;;;;6.55;3.70;;;896.90;1484.80;;;;;;5056403;28;20025;-69
2021/07/09 10:18:19;;;;;;;7.65;3.50;;;896.80;1459.20;;;;;;5056082;28;20040;-69
2021/07/09 10:20:46;;;;;;;5.60;4.00;;;896.80;1484.80;;;;;;5057037;28;20033;-68
2021/07/09 10:23:20;;;;;;;6.50;3.60;;;896.90;1459.20;;;;;;5055945;28;20029;-68
2021/07/09 10:25:48;;;;;;;6.38;3.50;;;896.80;1484.80;;;;;;5058816;28;20053;-70
2021/07/09 10:31:37;;;;;;;6.05;3.40;;;896.60;1484.80;;;;;;5074514;28;20435;-69
2021/07/09 10:34:34;;;;;;;5.30;3.42;;;896.60;1484.80;;;;;;5074110;28;20056;-69
2021/07/09 10:37:01;;;;;;;6.28;3.47;;;896.90;1484.80;;;;;;5074162;28;20490;-69
2021/07/09 10:40:03;;;;;;;5.80;3.50;;;896.60;1484.80;;;;;;5074144;28;20494;-70
2021/07/09 10:42:39;;;;;;;4.63;3.50;;;896.50;1484.80;;;;;;5074240;28;20094;-69
2021/07/09 10:45:16;;;;;;;5.47;4.07;;;896.30;1484.80;;;;;;5073963;28;20028;-68
2021/07/09 10:47:52;;;;;;;7.15;3.63;;;896.50;1484.80;;;;;;5074227;28;20020;-70
2021/07/09 10:50:40;;;;;;;6.53;3.50;;;896.30;1484.80;;;;;;5073965;28;20013;-68
2021/07/09 10:53:19;;;;;;;5.47;3.47;;;896.30;1484.80;;;;;;5073886;28;20127;-68
2021/07/09 10:55:52;;;;;;;5.75;3.80;;;896.60;1484.80;;;;;;5074042;28;20108;-67
2021/07/09 10:58:20;;;;;;;5.10;3.60;;;921.60;1510.40;;;;;;5074099;28;20085;-68
2021/07/09 11:01:17;;;;;;;6.10;3.85;;;922.00;1484.80;;;;;;5073670;28;20028;-70
2021/07/09 11:03:42;;;;;;;6.80;3.60;;;921.90;1484.80;;;;;;5073908;28;20036;-70
2021/07/09 11:06:19;;;;;;;5.80;3.83;;;921.70;1484.80;;;;;;5073588;28;20085;-70
2021/07/09 11:09:01;;;;;;;5.88;3.90;;;921.70;1484.80;;;;;;5052641;28;20029;-70
2021/07/09 11:11:30;;;;;;;5.55;3.70;;;921.70;1484.80;;;;;;5039588;28;20075;-70
2021/07/09 11:14:36;;;;;;;9.05;3.70;;;921.60;1484.80;;;;;;5040725;28;20102;-68
2021/07/09 11:17:15;;;;;;;5.30;4.03;;;921.60;1510.40;;;;;;5055318;28;20450;-69
2021/07/09 11:19:41;;;;;;;4.78;3.55;;;921.60;1484.80;;;;;;5054644;28;20112;-70
2021/07/09 11:22:12;;;;;;;5.30;4.10;;;921.80;1484.80;;;;;;5055429;28;20103;-70
2021/07/09 11:24:53;;;;;;;6.07;3.60;;;922.00;1484.80;;;;;;5054247;28;20029;-70
2021/07/09 11:27:22;;;;;;;5.72;3.67;;;922.50;1484.80;;;;;;5068484;28;20546;-70
2021/07/09 11:29:49;;;;;;;5.83;3.67;;;947.30;1433.60;;;;;;5073607;28;20021;-70
2021/07/09 11:32:20;;;;;;;5.28;3.55;;;947.70;1459.20;;;;;;5073105;28;20055;-71
2021/07/09 11:34:48;;;;;;;5.05;3.88;;;947.90;1433.60;;;;;;5073458;28;20435;-70
2021/07/09 11:37:20;;;;;;;6.20;3.90;;;948.10;1408.00;;;;;;5073250;28;20032;-70
2021/07/09 11:39:48;;;;;;;7.55;4.00;;;947.90;1408.00;;;;;;5073188;28;20035;-69
2021/07/09 11:42:22;;;;;;;8.32;4.45;;;947.90;1433.60;;;;;;5073375;28;20383;-68
2021/07/09 11:44:51;;;;;;;5.70;3.80;;;972.90;1433.60;;;;;;5072857;28;20507;-71
2021/07/09 11:47:17;;;;;;;6.55;4.28;;;973.20;1408.00;;;;;;5072934;28;20482;-71
2021/07/09 11:50:05;;;;;;;6.05;3.70;;;999.00;1382.40;;;;;;5072928;28;20013;-73
2021/07/09 11:52:33;;;;;;;6.28;3.50;;;1050.00;1331.20;;;;;;5072872;28;20035;-71
2021/07/09 11:55:01;;;;;;;6.65;3.72;;;1075.40;1280.00;;;;;;5072095;28;20024;-73
2021/07/09 11:57:32;;;;;;;5.13;3.53;;;1075.90;1280.00;;;;;;5044966;28;20041;-72
2021/07/09 12:00:00;;;;;;;5.97;3.50;;;1100.90;1280.00;;;;;;5056894;28;20066;-70
2021/07/09 12:02:28;;;;;;;5.33;3.80;;;1075.80;1280.00;;;;;;5058675;28;20171;-65
2021/07/09 12:04:59;;;;;;;4.93;3.63;;;1101.10;1280.00;;;;;;5059019;28;20036;-68
2021/07/09 12:07:34;;;;;;;4.68;3.42;;;1076.10;1254.40;;;;;;5059205;28;20032;-68
2021/07/09 12:10:10;;;;;;;4.70;3.70;;;1075.30;1280.00;;;;;;5058954;28;20160;-68
2021/07/09 12:12:42;;;;;;;4.72;3.45;;;1075.60;1280.00;;;;;;5058510;28;20041;-68
2021/07/09 12:15:17;;;;;;;4.93;3.58;;;1075.60;1280.00;;;;;;5059074;28;20112;-68
2021/07/09 12:17:56;;;;;;;5.35;3.70;;;1101.20;1254.40;;;;;;5051966;28;20029;-68
2021/07/09 12:20:24;;;;;;;6.65;3.70;;;1126.50;1254.40;;;;;;5044280;28;20044;-69
2021/07/09 12:22:51;;;;;;;5.25;3.60;;;1126.80;1254.40;;;;;;5034040;28;20025;-68